Helm, California
Current Conditions -  °F | °C
As of 7:56 PM on Wednesday 26 Nov 2014 (Local Time) from KNLC Reporting Station
Scattered Clouds Scattered Clouds  
Wind Chill:   Ceiling: Unl
Heat Index:   Visibility: 7mi
Dew Point:   Wind: 7mph
Humidity: 86%   Direction: 190°S
Pressure: 30.23"   Gusts: NA
Location:  36.53°N, 120.1°W
Report Text: KNLC 270356Z 19006KT 7SM FEW180 SCT230 09/07 A3023 RMK AO2 SLP240 T00940072 $
Loading
Personal Weather Stations






























Interactive Weather Map New forecast layout! Learn more

10-Day Weather Forecast

Advertisements
Track Severe Weather on mobile